Time;durP1;ratioP1;P1;durP2;ratioP2;P2;SDS_P1;SDS_P2;PMS_P1;PMS_P2;Temp;Humidity;BMP_temperature;BMP_pressure;BME280_temperature;BME280_humidity;BME280_pressure;Samples;Min_cycle;Max_cycle;Signal;HPM_P1;HPM_P2
2021/09/19 00:01:15;;;;;;;1.20;0.45;;;17.80;42.40;;;;;;5073017;28;20241;-50
2021/09/19 00:03:45;;;;;;;0.45;0.45;;;17.90;42.80;;;;;;5073588;28;20250;-45
2021/09/19 00:06:15;;;;;;;1.23;0.50;;;17.90;42.00;;;;;;5098770;22;20249;-43
2021/09/19 00:08:46;;;;;;;1.17;0.30;;;18.00;42.20;;;;;;5093539;28;20689;-43
2021/09/19 00:11:15;;;;;;;0.75;0.55;;;18.00;42.20;;;;;;5092924;28;20234;-42
2021/09/19 00:13:45;;;;;;;3.83;0.88;;;18.10;42.30;;;;;;5093372;28;20591;-43
2021/09/19 00:16:16;;;;;;;3.85;0.63;;;18.10;43.00;;;;;;5078780;28;20316;-43
2021/09/19 00:18:46;;;;;;;2.10;0.50;;;18.20;43.50;;;;;;5073157;28;20198;-44
2021/09/19 00:21:15;;;;;;;1.92;0.40;;;18.20;43.20;;;;;;5072962;28;20249;-44
2021/09/19 00:23:46;;;;;;;2.78;0.55;;;18.30;43.30;;;;;;5072656;28;20270;-52
2021/09/19 00:26:16;;;;;;;2.15;0.40;;;18.30;43.60;;;;;;5072815;28;20336;-44
2021/09/19 00:28:46;;;;;;;1.33;0.30;;;18.30;43.60;;;;;;5072883;28;20210;-42
2021/09/19 00:31:16;;;;;;;0.55;0.38;;;18.30;43.40;;;;;;5072645;28;20241;-46
2021/09/19 00:33:46;;;;;;;0.35;0.30;;;18.30;43.50;;;;;;5072880;28;20649;-47
2021/09/19 00:36:16;;;;;;;0.40;0.30;;;18.30;43.00;;;;;;5072728;28;20223;-44
2021/09/19 00:38:47;;;;;;;1.13;0.30;;;18.30;42.70;;;;;;5072973;28;20238;-44
2021/09/19 00:41:16;;;;;;;0.77;0.50;;;18.40;43.00;;;;;;5072934;28;20237;-42
2021/09/19 00:43:47;;;;;;;1.63;0.50;;;18.40;42.90;;;;;;5072753;28;20214;-43
2021/09/19 00:46:17;;;;;;;1.63;0.60;;;18.40;42.50;;;;;;5072811;28;20262;-43
2021/09/19 00:48:46;;;;;;;1.58;0.40;;;18.40;42.50;;;;;;5072804;28;20211;-45
2021/09/19 00:51:16;;;;;;;0.40;0.40;;;18.40;42.40;;;;;;5072476;28;20285;-45
2021/09/19 00:53:47;;;;;;;0.55;0.50;;;18.40;42.20;;;;;;5073214;28;20309;-43
2021/09/19 00:56:17;;;;;;;7.88;0.95;;;18.40;42.00;;;;;;5072699;28;20266;-45
2021/09/19 00:58:46;;;;;;;2.97;0.70;;;18.30;42.50;;;;;;5072237;28;20286;-53
2021/09/19 01:01:17;;;;;;;1.08;0.60;;;18.40;42.90;;;;;;5072078;28;20471;-51
2021/09/19 01:03:47;;;;;;;6.38;0.65;;;18.40;43.10;;;;;;5072384;28;20278;-52
2021/09/19 01:06:17;;;;;;;2.33;0.60;;;18.40;43.40;;;;;;5072469;28;20297;-50
2021/09/19 01:08:48;;;;;;;1.60;0.63;;;18.40;43.70;;;;;;5072071;28;20245;-53
2021/09/19 01:11:17;;;;;;;5.28;0.70;;;18.40;44.00;;;;;;5072356;28;20236;-53
2021/09/19 01:13:47;;;;;;;0.57;0.57;;;18.40;44.30;;;;;;5064431;28;20287;-54
2021/09/19 01:16:18;;;;;;;1.58;0.47;;;18.40;44.50;;;;;;5066644;28;20352;-52
2021/09/19 01:18:48;;;;;;;1.73;0.50;;;18.40;44.60;;;;;;5072371;28;20234;-53
2021/09/19 01:21:18;;;;;;;3.88;0.63;;;18.40;44.70;;;;;;5072107;28;20238;-53
2021/09/19 01:24:02;;;;;;;1.38;0.47;;;18.40;44.80;;;;;;5072091;28;20217;-52
2021/09/19 01:26:32;;;;;;;3.88;0.98;;;18.40;45.00;;;;;;5072150;28;20268;-48
2021/09/19 01:29:02;;;;;;;0.47;0.47;;;18.40;45.10;;;;;;5072204;28;20234;-49
2021/09/19 01:31:31;;;;;;;1.40;0.73;;;18.40;45.30;;;;;;5072004;28;20272;-53
2021/09/19 01:34:01;;;;;;;1.63;0.40;;;18.40;45.40;;;;;;5072478;28;20309;-53
2021/09/19 01:36:32;;;;;;;0.93;0.45;;;18.40;45.50;;;;;;5071966;28;20254;-48
2021/09/19 01:39:03;;;;;;;1.33;0.40;;;18.40;45.60;;;;;;5072176;28;20246;-54
2021/09/19 01:41:33;;;;;;;0.90;0.52;;;18.40;45.70;;;;;;5072163;28;20238;-52
2021/09/19 01:44:02;;;;;;;0.50;0.40;;;18.40;45.80;;;;;;5062712;28;20301;-50
2021/09/19 01:46:32;;;;;;;1.27;0.57;;;18.50;45.80;;;;;;5056655;28;20262;-54
2021/09/19 01:49:02;;;;;;;2.40;0.40;;;18.50;45.80;;;;;;5051914;28;20245;-51
2021/09/19 01:51:32;;;;;;;4.70;0.70;;;18.50;46.00;;;;;;5051942;28;20267;-56
2021/09/19 01:54:03;;;;;;;0.70;0.40;;;18.50;45.90;;;;;;5051943;28;20318;-55
2021/09/19 01:56:33;;;;;;;1.80;0.60;;;18.50;46.00;;;;;;5070310;28;20234;-51
2021/09/19 01:59:03;;;;;;;1.35;0.60;;;18.50;46.10;;;;;;5071368;28;20245;-54
2021/09/19 02:01:32;;;;;;;1.08;0.47;;;18.50;46.20;;;;;;5070038;28;20249;-52
2021/09/19 02:04:02;;;;;;;0.90;0.40;;;18.50;46.30;;;;;;5071758;28;20253;-54
2021/09/19 02:06:32;;;;;;;1.55;0.60;;;18.50;46.30;;;;;;5071365;28;20805;-53
2021/09/19 02:09:03;;;;;;;3.03;0.55;;;18.50;46.40;;;;;;5071119;28;20234;-53
2021/09/19 02:11:33;;;;;;;1.20;0.50;;;18.50;46.40;;;;;;5071015;28;20203;-56
2021/09/19 02:14:03;;;;;;;1.85;0.60;;;18.50;46.50;;;;;;5070970;28;20342;-53
2021/09/19 02:16:32;;;;;;;1.77;0.70;;;18.50;46.60;;;;;;5071341;28;20266;-55
2021/09/19 02:19:02;;;;;;;0.90;0.43;;;18.50;46.70;;;;;;5071420;28;20272;-51
2021/09/19 02:21:32;;;;;;;2.20;0.50;;;18.50;46.70;;;;;;5071699;28;20246;-52
2021/09/19 02:24:03;;;;;;;0.85;0.50;;;18.50;46.70;;;;;;5070985;28;20286;-53
2021/09/19 02:26:33;;;;;;;0.65;0.47;;;18.50;46.80;;;;;;5070596;28;20813;-55
2021/09/19 02:29:02;;;;;;;1.27;0.50;;;18.50;46.70;;;;;;5070654;28;20483;-56
2021/09/19 02:31:32;;;;;;;1.65;0.50;;;18.50;46.80;;;;;;5071240;28;20199;-55
2021/09/19 02:34:02;;;;;;;1.63;0.73;;;18.50;46.80;;;;;;5071391;28;20226;-56
2021/09/19 02:36:32;;;;;;;0.50;0.50;;;18.50;46.80;;;;;;5070910;28;20262;-53
2021/09/19 02:39:03;;;;;;;1.85;0.50;;;18.50;46.90;;;;;;5070260;28;20280;-57
2021/09/19 02:41:32;;;;;;;0.82;0.50;;;18.50;47.00;;;;;;5070506;28;20276;-51
2021/09/19 02:44:02;;;;;;;0.93;0.50;;;18.50;47.10;;;;;;5070643;28;20704;-56
2021/09/19 02:46:32;;;;;;;0.65;0.50;;;18.50;47.10;;;;;;5070994;28;20273;-52
2021/09/19 02:49:02;;;;;;;1.27;0.50;;;18.50;47.10;;;;;;5071037;28;20230;-54
2021/09/19 02:51:34;;;;;;;2.15;0.50;;;18.50;47.10;;;;;;5070314;28;20241;-54
2021/09/19 02:54:05;;;;;;;0.65;0.43;;;18.50;47.20;;;;;;5070184;28;20226;-53
2021/09/19 02:56:34;;;;;;;0.63;0.50;;;18.50;47.30;;;;;;5070458;28;20261;-52
2021/09/19 02:59:04;;;;;;;1.10;0.50;;;18.50;47.30;;;;;;5070237;28;21307;-54
2021/09/19 03:01:34;;;;;;;1.60;0.63;;;18.50;47.30;;;;;;5070447;28;20259;-51
2021/09/19 03:04:04;;;;;;;1.00;0.43;;;18.50;47.40;;;;;;5070305;28;20314;-56
2021/09/19 03:06:33;;;;;;;1.67;0.57;;;18.50;47.40;;;;;;5070531;28;20304;-51
2021/09/19 03:09:04;;;;;;;0.88;0.70;;;18.50;47.30;;;;;;5069977;28;20246;-52
2021/09/19 03:11:34;;;;;;;1.02;0.60;;;18.50;47.30;;;;;;5070083;28;20246;-53
2021/09/19 03:14:04;;;;;;;1.15;0.60;;;18.50;47.30;;;;;;5069670;28;20261;-53
2021/09/19 03:16:34;;;;;;;1.40;0.57;;;18.50;47.30;;;;;;5069821;28;20710;-55
2021/09/19 03:19:03;;;;;;;0.95;0.70;;;18.50;47.30;;;;;;5069500;28;20234;-55
2021/09/19 03:21:33;;;;;;;0.55;0.50;;;18.50;47.40;;;;;;5069699;28;20253;-51
2021/09/19 03:24:04;;;;;;;0.90;0.60;;;18.50;47.40;;;;;;5070024;28;20238;-52
2021/09/19 03:26:34;;;;;;;1.58;0.50;;;18.60;47.50;;;;;;5069939;28;20725;-54
2021/09/19 03:29:04;;;;;;;1.08;0.77;;;18.60;47.60;;;;;;5069484;28;20241;-55
2021/09/19 03:31:34;;;;;;;1.33;0.80;;;18.60;47.70;;;;;;5069389;28;20231;-52
2021/09/19 03:34:03;;;;;;;1.45;0.70;;;18.60;47.60;;;;;;5049974;28;20262;-54
2021/09/19 03:36:33;;;;;;;2.35;1.00;;;18.60;47.40;;;;;;5050022;28;20723;-55
2021/09/19 03:39:04;;;;;;;1.10;0.90;;;18.60;47.30;;;;;;5050052;28;20235;-53
2021/09/19 03:41:34;;;;;;;1.23;0.70;;;18.70;47.30;;;;;;5049822;28;20246;-54
2021/09/19 03:44:04;;;;;;;1.90;0.70;;;18.70;47.20;;;;;;5049709;28;20253;-54
2021/09/19 03:46:34;;;;;;;1.35;0.90;;;18.70;47.20;;;;;;5050116;28;20600;-56
2021/09/19 03:49:03;;;;;;;0.85;0.70;;;18.70;47.20;;;;;;5050328;28;20241;-55
2021/09/19 03:51:33;;;;;;;0.90;0.77;;;18.80;47.10;;;;;;5050234;28;20239;-56
2021/09/19 03:54:04;;;;;;;0.95;0.85;;;18.80;47.00;;;;;;5049830;28;20881;-52
2021/09/19 03:56:34;;;;;;;0.60;0.60;;;18.80;46.90;;;;;;5068717;28;20272;-53
2021/09/19 03:59:04;;;;;;;2.08;0.82;;;18.80;46.90;;;;;;5069538;28;20234;-53
2021/09/19 04:01:33;;;;;;;1.52;0.70;;;18.80;46.80;;;;;;5069133;28;20202;-55
2021/09/19 04:04:03;;;;;;;1.05;0.80;;;18.80;46.70;;;;;;5070075;28;20317;-53
2021/09/19 04:06:33;;;;;;;1.27;0.90;;;18.80;46.70;;;;;;5070344;28;20269;-55
2021/09/19 04:09:04;;;;;;;1.55;0.68;;;18.80;46.60;;;;;;5069749;28;20238;-55
2021/09/19 04:11:34;;;;;;;1.83;1.05;;;18.90;46.70;;;;;;5069749;28;20701;-55
2021/09/19 04:14:03;;;;;;;0.93;0.80;;;18.90;46.50;;;;;;5069589;28;20265;-54
2021/09/19 04:16:33;;;;;;;1.65;0.80;;;18.90;46.50;;;;;;5069422;28;20313;-53
2021/09/19 04:19:03;;;;;;;1.80;0.88;;;18.90;46.40;;;;;;5069467;28;20203;-56
2021/09/19 04:21:33;;;;;;;1.10;0.90;;;18.90;46.40;;;;;;5069618;28;20668;-56
2021/09/19 04:24:04;;;;;;;1.05;0.75;;;18.90;46.40;;;;;;5069483;28;20238;-54
2021/09/19 04:26:34;;;;;;;1.13;0.70;;;19.00;46.30;;;;;;5072961;28;20258;-56
2021/09/19 04:29:03;;;;;;;0.90;0.73;;;19.00;46.30;;;;;;5073129;28;20554;-54
2021/09/19 04:31:33;;;;;;;1.17;0.80;;;19.00;46.20;;;;;;5072683;28;20261;-52
2021/09/19 04:34:03;;;;;;;1.67;0.70;;;19.00;46.20;;;;;;5072653;28;20321;-50
2021/09/19 04:36:33;;;;;;;1.00;0.82;;;19.00;46.20;;;;;;5072607;28;20312;-54
2021/09/19 04:39:04;;;;;;;1.33;0.80;;;19.00;46.20;;;;;;5072617;28;20261;-50
2021/09/19 04:41:34;;;;;;;2.15;0.75;;;19.00;46.40;;;;;;5072727;28;20246;-51
2021/09/19 04:44:03;;;;;;;0.80;0.80;;;19.00;46.10;;;;;;5072673;28;20237;-54
2021/09/19 04:46:33;;;;;;;1.60;0.95;;;19.00;46.10;;;;;;5072806;28;20254;-55
2021/09/19 04:49:03;;;;;;;2.60;0.90;;;19.00;46.00;;;;;;5072748;28;20242;-56
2021/09/19 04:51:33;;;;;;;2.05;0.80;;;19.00;46.00;;;;;;5072656;28;20633;-54
2021/09/19 04:54:04;;;;;;;1.67;0.70;;;19.00;46.00;;;;;;5072690;28;20275;-56
2021/09/19 04:56:33;;;;;;;3.05;0.90;;;19.00;46.00;;;;;;5072524;28;20681;-55
2021/09/19 04:59:03;;;;;;;2.55;1.00;;;19.00;45.90;;;;;;5072386;28;20213;-54
2021/09/19 05:01:33;;;;;;;1.45;0.80;;;19.00;45.80;;;;;;5072102;28;20780;-56
2021/09/19 05:04:03;;;;;;;2.25;0.90;;;19.00;45.70;;;;;;5071731;28;20648;-52
2021/09/19 05:06:32;;;;;;;0.85;0.70;;;19.00;45.60;;;;;;5072085;28;20254;-54
2021/09/19 05:09:03;;;;;;;1.23;0.70;;;19.00;45.60;;;;;;5071851;28;20249;-55
2021/09/19 05:11:34;;;;;;;1.10;0.85;;;19.00;45.50;;;;;;5072015;28;20238;-55
2021/09/19 05:14:03;;;;;;;1.10;0.77;;;19.00;45.50;;;;;;5072273;28;20557;-53
2021/09/19 05:16:33;;;;;;;0.88;0.80;;;19.00;45.50;;;;;;5071999;28;20313;-56
2021/09/19 05:19:03;;;;;;;1.30;0.63;;;19.00;45.50;;;;;;5072458;28;20265;-55
2021/09/19 05:21:33;;;;;;;1.15;0.73;;;19.00;45.40;;;;;;5072489;28;20554;-56
2021/09/19 05:24:04;;;;;;;1.02;0.75;;;19.00;45.50;;;;;;5072532;28;20207;-55
2021/09/19 05:26:34;;;;;;;0.85;0.70;;;19.00;45.30;;;;;;5071606;28;20260;-54
2021/09/19 05:29:04;;;;;;;2.00;0.80;;;19.00;45.30;;;;;;5071427;28;20358;-53
2021/09/19 05:31:33;;;;;;;2.25;0.80;;;19.00;45.50;;;;;;5071601;28;20234;-57
2021/09/19 05:34:04;;;;;;;0.80;0.80;;;19.00;45.50;;;;;;5071535;28;20262;-54
2021/09/19 05:36:35;;;;;;;1.25;0.70;;;19.00;45.60;;;;;;5070380;28;20226;-56
2021/09/19 05:39:06;;;;;;;1.33;0.80;;;19.00;45.60;;;;;;5071889;28;20337;-52
2021/09/19 05:41:35;;;;;;;1.17;0.70;;;19.00;45.60;;;;;;5071586;28;20210;-56
2021/09/19 05:44:05;;;;;;;0.85;0.77;;;19.00;45.70;;;;;;5071793;28;20245;-57
2021/09/19 05:46:36;;;;;;;1.70;0.80;;;19.00;45.70;;;;;;5071556;28;20396;-55
2021/09/19 05:49:06;;;;;;;1.75;0.70;;;19.00;45.80;;;;;;5071588;28;20235;-57
2021/09/19 05:51:35;;;;;;;0.85;0.70;;;19.00;45.80;;;;;;5071307;28;20292;-55
2021/09/19 05:54:06;;;;;;;1.27;1.02;;;19.00;45.80;;;;;;5071551;28;20677;-56
2021/09/19 05:56:36;;;;;;;1.65;0.80;;;19.00;45.80;;;;;;5071930;28;20258;-56
2021/09/19 05:59:06;;;;;;;1.38;0.70;;;19.00;45.80;;;;;;5071595;28;20586;-57
2021/09/19 06:01:36;;;;;;;0.77;0.70;;;18.90;45.80;;;;;;5071328;28;20265;-49
2021/09/19 06:04:05;;;;;;;1.33;0.80;;;18.90;45.90;;;;;;5071306;28;20376;-56
2021/09/19 06:06:35;;;;;;;0.60;0.60;;;18.90;46.00;;;;;;5070750;28;20254;-50
2021/09/19 06:09:06;;;;;;;1.52;1.10;;;18.90;46.00;;;;;;5070586;28;20238;-49
2021/09/19 06:11:36;;;;;;;0.70;0.70;;;18.90;46.10;;;;;;5070256;28;20234;-54
2021/09/19 06:14:06;;;;;;;0.70;0.70;;;18.90;46.10;;;;;;5070326;28;20701;-53
2021/09/19 06:16:35;;;;;;;1.15;0.90;;;18.90;46.20;;;;;;5070195;28;20261;-49
2021/09/19 06:19:05;;;;;;;1.17;0.98;;;18.90;46.10;;;;;;5070676;28;20290;-56
2021/09/19 06:21:35;;;;;;;0.88;0.73;;;18.80;46.10;;;;;;5070443;28;20238;-56
2021/09/19 06:24:07;;;;;;;0.88;0.80;;;18.90;46.10;;;;;;5070085;28;20234;-51
2021/09/19 06:26:36;;;;;;;0.95;0.75;;;18.80;46.20;;;;;;5070640;28;20277;-53
2021/09/19 06:29:06;;;;;;;0.95;0.75;;;18.80;46.30;;;;;;5070878;28;20208;-54
2021/09/19 06:31:36;;;;;;;0.98;0.57;;;18.80;46.30;;;;;;5070971;28;20271;-55
2021/09/19 06:34:06;;;;;;;0.88;0.77;;;18.80;46.40;;;;;;5070696;28;20269;-56
2021/09/19 06:36:35;;;;;;;0.80;0.80;;;18.80;46.40;;;;;;5070720;28;20919;-56
2021/09/19 06:39:06;;;;;;;0.77;0.70;;;18.80;46.40;;;;;;5071134;28;20280;-54
2021/09/19 06:41:36;;;;;;;0.77;0.77;;;18.80;46.40;;;;;;5071207;28;20234;-56
2021/09/19 06:44:06;;;;;;;1.27;0.82;;;18.80;46.40;;;;;;5071159;28;20281;-55
2021/09/19 06:46:36;;;;;;;0.70;0.63;;;18.80;46.50;;;;;;5070942;28;20245;-56
2021/09/19 06:49:06;;;;;;;1.35;0.82;;;18.70;46.40;;;;;;5066327;28;20462;-56
2021/09/19 06:51:35;;;;;;;0.70;0.70;;;18.60;46.60;;;;;;5069605;28;20238;-53
2021/09/19 06:54:06;;;;;;;0.80;0.77;;;18.60;46.80;;;;;;5069898;28;20563;-52
2021/09/19 06:56:36;;;;;;;0.60;0.60;;;18.70;46.70;;;;;;5069570;28;20231;-55
2021/09/19 06:59:06;;;;;;;1.90;0.93;;;18.70;46.70;;;;;;5069400;28;20215;-52
2021/09/19 07:01:36;;;;;;;1.25;0.80;;;18.70;46.60;;;;;;5070103;28;20240;-53
2021/09/19 07:04:06;;;;;;;1.13;0.95;;;18.70;46.60;;;;;;5069964;28;20701;-53
2021/09/19 07:06:35;;;;;;;0.90;0.90;;;18.70;46.50;;;;;;5070068;28;20268;-50
2021/09/19 07:09:05;;;;;;;1.05;0.95;;;18.70;46.60;;;;;;5068721;28;20259;-54
2021/09/19 07:11:36;;;;;;;1.77;1.00;;;18.70;46.60;;;;;;5069321;28;20245;-48
2021/09/19 07:14:06;;;;;;;0.82;0.80;;;18.70;46.60;;;;;;5069227;28;20592;-49
2021/09/19 07:16:36;;;;;;;2.00;0.80;;;18.70;46.60;;;;;;5089926;28;20364;-48
2021/09/19 07:19:05;;;;;;;1.45;0.95;;;18.60;46.70;;;;;;5077826;28;20234;-52
2021/09/19 07:21:35;;;;;;;0.75;0.70;;;18.60;46.80;;;;;;5070002;28;20245;-49
2021/09/19 07:24:05;;;;;;;0.63;0.63;;;18.60;46.80;;;;;;5066782;28;20254;-52
2021/09/19 07:26:36;;;;;;;1.55;1.15;;;18.60;46.90;;;;;;5069968;28;20262;-51
2021/09/19 07:29:06;;;;;;;0.85;0.85;;;18.60;46.90;;;;;;5068628;28;20234;-48
2021/09/19 07:31:36;;;;;;;0.90;0.85;;;18.60;46.80;;;;;;5070127;28;20214;-53
2021/09/19 07:34:06;;;;;;;1.23;0.93;;;18.50;46.90;;;;;;5069631;28;20570;-52
2021/09/19 07:36:36;;;;;;;2.92;1.05;;;18.50;46.90;;;;;;5069248;28;20222;-54
2021/09/19 07:39:07;;;;;;;1.17;0.88;;;18.50;46.90;;;;;;5068953;28;20230;-52
2021/09/19 07:41:38;;;;;;;0.90;0.90;;;18.50;47.00;;;;;;5069588;28;20237;-54
2021/09/19 07:44:09;;;;;;;1.55;0.90;;;18.50;47.10;;;;;;5069589;28;20202;-51
2021/09/19 07:46:40;;;;;;;1.35;1.00;;;18.50;47.10;;;;;;5068209;28;20305;-50
2021/09/19 07:49:10;;;;;;;1.17;0.80;;;18.50;47.00;;;;;;5067414;28;20277;-54
2021/09/19 07:51:40;;;;;;;1.88;1.00;;;18.50;47.10;;;;;;5069004;28;20206;-55
2021/09/19 07:54:10;;;;;;;1.27;1.10;;;18.50;47.10;;;;;;5080741;28;20248;-54
2021/09/19 07:56:41;;;;;;;2.30;0.98;;;18.50;47.10;;;;;;5069243;28;20288;-53
2021/09/19 07:59:11;;;;;;;2.25;1.00;;;18.50;47.20;;;;;;5069291;28;20239;-49
2021/09/19 08:01:40;;;;;;;1.52;1.10;;;18.40;47.20;;;;;;5072746;28;20231;-49
2021/09/19 08:04:10;;;;;;;1.40;1.30;;;18.40;47.20;;;;;;5078940;28;20229;-47
2021/09/19 08:06:40;;;;;;;1.52;1.13;;;18.40;47.20;;;;;;5093029;28;20249;-54
2021/09/19 08:09:10;;;;;;;3.70;1.00;;;18.40;47.30;;;;;;5076576;28;20230;-49
2021/09/19 08:11:41;;;;;;;1.38;0.98;;;18.40;47.40;;;;;;5072883;28;20249;-51
2021/09/19 08:14:10;;;;;;;1.52;1.13;;;18.40;47.50;;;;;;5070433;28;20266;-52
2021/09/19 08:16:41;;;;;;;2.55;1.23;;;18.30;47.50;;;;;;5072972;28;20710;-52
2021/09/19 08:19:10;;;;;;;1.38;1.10;;;18.30;47.40;;;;;;5071953;28;20218;-51
2021/09/19 08:21:40;;;;;;;1.95;1.00;;;18.30;47.50;;;;;;5072039;28;20261;-51
2021/09/19 08:24:11;;;;;;;1.30;1.10;;;18.30;47.50;;;;;;5072278;28;20246;-55
2021/09/19 08:26:42;;;;;;;2.25;1.30;;;18.30;47.50;;;;;;5071208;28;20230;-50
2021/09/19 08:29:11;;;;;;;2.40;1.70;;;18.30;47.80;;;;;;5069638;28;20761;-52
2021/09/19 08:31:41;;;;;;;2.30;1.30;;;18.30;48.00;;;;;;5072242;28;20206;-49
2021/09/19 08:34:11;;;;;;;2.22;1.45;;;18.30;48.20;;;;;;5072328;28;20654;-49
2021/09/19 08:36:41;;;;;;;4.10;1.48;;;18.40;48.40;;;;;;5071596;28;20269;-51
2021/09/19 08:39:10;;;;;;;2.42;1.67;;;18.40;48.40;;;;;;5081177;28;20720;-51
2021/09/19 08:41:41;;;;;;;2.83;1.40;;;18.40;48.40;;;;;;5092361;28;20283;-50
2021/09/19 08:44:12;;;;;;;2.38;1.50;;;18.40;48.40;;;;;;5092538;28;20661;-56
2021/09/19 08:46:42;;;;;;;2.55;1.40;;;18.40;48.30;;;;;;5091303;28;20233;-51
2021/09/19 08:49:11;;;;;;;2.67;1.40;;;18.40;48.30;;;;;;5079457;28;20241;-54
2021/09/19 08:51:41;;;;;;;2.13;1.67;;;18.40;48.30;;;;;;5072437;28;20611;-53
2021/09/19 08:54:11;;;;;;;1.85;1.50;;;18.30;48.20;;;;;;5071473;28;20230;-57
2021/09/19 08:56:42;;;;;;;2.90;1.60;;;18.30;48.20;;;;;;5072737;28;20258;-51
2021/09/19 08:59:12;;;;;;;2.80;1.83;;;18.30;48.20;;;;;;5067525;28;20242;-52
2021/09/19 09:02:00;;;;;;;2.47;1.48;;;18.30;48.20;;;;;;5071956;28;20199;-49
2021/09/19 09:04:30;;;;;;;2.03;1.30;;;18.30;48.20;;;;;;5071688;28;20218;-55
2021/09/19 09:07:00;;;;;;;1.98;1.30;;;18.30;48.20;;;;;;5072124;28;20250;-53
2021/09/19 09:09:30;;;;;;;1.33;1.20;;;18.30;48.20;;;;;;5068565;28;20797;-51
2021/09/19 09:12:04;;;;;;;1.50;1.40;;;18.30;48.20;;;;;;5071435;28;20234;-52
2021/09/19 09:14:41;;;;;;;3.92;1.55;;;18.30;48.20;;;;;;5070928;28;20261;-51
2021/09/19 09:17:16;;;;;;;2.90;1.42;;;18.20;48.20;;;;;;5071567;28;20740;-56
2021/09/19 09:19:47;;;;;;;1.90;1.40;;;18.20;48.20;;;;;;5071188;28;20210;-55
2021/09/19 09:22:17;;;;;;;1.60;1.17;;;18.30;48.40;;;;;;5071712;28;20249;-56
2021/09/19 09:24:46;;;;;;;1.95;1.42;;;18.20;48.20;;;;;;5071561;28;20210;-57
2021/09/19 09:27:26;;;;;;;1.70;1.48;;;18.20;48.20;;;;;;5070418;28;20258;-53
2021/09/19 09:30:16;;;;;;;1.90;1.40;;;18.20;48.20;;;;;;5069992;28;20252;-58
2021/09/19 09:33:02;;;;;;;1.67;1.33;;;18.20;48.20;;;;;;5070442;28;20210;-57
2021/09/19 09:35:35;;;;;;;2.42;1.42;;;18.10;48.20;;;;;;5071212;28;20377;-57
2021/09/19 09:38:17;;;;;;;2.00;1.30;;;18.10;48.20;;;;;;5067995;28;20198;-56
2021/09/19 09:40:48;;;;;;;1.60;1.30;;;18.10;48.30;;;;;;5072046;28;20243;-57
2021/09/19 09:43:19;;;;;;;2.20;1.45;;;18.10;48.20;;;;;;5070046;28;20268;-56
2021/09/19 09:45:49;;;;;;;1.95;1.38;;;18.10;48.20;;;;;;5071044;28;20226;-57
2021/09/19 09:48:29;;;;;;;2.25;1.30;;;18.10;48.30;;;;;;5071055;28;20203;-58
2021/09/19 09:50:59;;;;;;;1.85;1.40;;;18.00;48.20;;;;;;5071010;28;20600;-54
2021/09/19 09:53:29;;;;;;;3.13;1.40;;;18.00;48.20;;;;;;5071007;28;20242;-52
2021/09/19 09:56:00;;;;;;;1.80;1.40;;;18.00;48.20;;;;;;5070321;28;20723;-53
2021/09/19 09:58:31;;;;;;;1.73;1.30;;;18.00;48.80;;;;;;5070044;28;20290;-54
2021/09/19 10:01:01;;;;;;;1.80;1.10;;;18.00;48.20;;;;;;5070146;28;20659;-52
2021/09/19 10:03:31;;;;;;;1.55;1.30;;;18.00;48.30;;;;;;5069814;28;20289;-53
2021/09/19 10:06:01;;;;;;;2.45;1.60;;;18.00;48.40;;;;;;5071387;28;20266;-50
2021/09/19 10:08:31;;;;;;;2.13;1.20;;;17.90;48.30;;;;;;5071280;28;20397;-50
2021/09/19 10:11:00;;;;;;;1.85;1.38;;;17.90;48.30;;;;;;5070734;28;20263;-51
2021/09/19 10:13:31;;;;;;;2.28;1.30;;;18.00;48.40;;;;;;5071182;28;20207;-54
2021/09/19 10:16:01;;;;;;;1.80;1.30;;;18.00;48.40;;;;;;5070905;28;20638;-51
2021/09/19 10:18:31;;;;;;;1.85;1.30;;;17.90;48.40;;;;;;5067979;28;20536;-49
2021/09/19 10:21:02;;;;;;;2.55;1.40;;;17.90;48.40;;;;;;5071274;28;20250;-47
2021/09/19 10:23:33;;;;;;;1.42;1.20;;;17.90;48.40;;;;;;5069158;28;20275;-51
2021/09/19 10:26:07;;;;;;;1.70;1.17;;;17.90;48.40;;;;;;5070392;28;20262;-52
2021/09/19 10:28:39;;;;;;;1.92;1.33;;;17.80;48.40;;;;;;5069714;28;20226;-54
2021/09/19 10:31:31;;;;;;;1.83;1.00;;;17.80;48.40;;;;;;5071453;28;20574;-53
2021/09/19 10:34:02;;;;;;;1.63;1.20;;;17.80;48.40;;;;;;5070719;28;20291;-51
2021/09/19 10:36:44;;;;;;;2.38;1.10;;;17.80;48.40;;;;;;5070830;28;20304;-48
2021/09/19 10:39:28;;;;;;;2.28;1.48;;;17.80;48.40;;;;;;5071091;28;20295;-49
2021/09/19 10:42:28;;;;;;;1.88;1.33;;;17.80;48.50;;;;;;5069301;28;20566;-54
2021/09/19 10:45:16;;;;;;;1.60;1.20;;;17.80;48.50;;;;;;5070575;28;20218;-52
2021/09/19 10:47:47;;;;;;;1.90;1.20;;;17.80;48.50;;;;;;5071089;28;20209;-51
2021/09/19 10:50:35;;;;;;;2.08;1.25;;;17.70;48.40;;;;;;5070809;28;20245;-50
2021/09/19 10:53:05;;;;;;;1.95;1.20;;;17.70;48.50;;;;;;5070480;28;20264;-54
2021/09/19 10:55:48;;;;;;;1.85;1.23;;;17.70;48.50;;;;;;5070739;28;20729;-54
2021/09/19 10:58:22;;;;;;;2.30;1.20;;;17.70;48.50;;;;;;5070757;28;20613;-52
2021/09/19 11:01:10;;;;;;;1.20;1.05;;;17.70;48.50;;;;;;5070724;28;20246;-50
2021/09/19 11:03:40;;;;;;;1.48;1.10;;;17.70;48.60;;;;;;5070415;28;20272;-53
2021/09/19 11:06:23;;;;;;;1.52;1.20;;;17.70;48.60;;;;;;5070718;28;20250;-52
2021/09/19 11:08:53;;;;;;;1.10;1.00;;;17.60;48.50;;;;;;5070559;28;20481;-53
2021/09/19 11:11:27;;;;;;;2.25;1.20;;;17.60;48.60;;;;;;5070635;28;20237;-53
2021/09/19 11:14:07;;;;;;;1.65;0.98;;;17.60;48.60;;;;;;5070491;28;20383;-51
2021/09/19 11:16:41;;;;;;;2.08;1.13;;;17.60;48.60;;;;;;5070493;28;20230;-51
2021/09/19 11:19:12;;;;;;;1.60;1.25;;;17.60;48.70;;;;;;5070959;28;20234;-51
2021/09/19 11:21:47;;;;;;;1.42;1.10;;;17.60;48.60;;;;;;5070560;28;20237;-54
2021/09/19 11:24:19;;;;;;;2.00;1.20;;;17.60;48.70;;;;;;5070611;28;20198;-56
2021/09/19 11:26:55;;;;;;;2.10;1.13;;;17.60;48.70;;;;;;5070106;28;20379;-52
2021/09/19 11:29:26;;;;;;;2.15;1.42;;;17.60;48.70;;;;;;5069769;28;20236;-56
2021/09/19 11:31:58;;;;;;;1.58;1.02;;;17.60;48.70;;;;;;5070480;28;20305;-53
2021/09/19 11:34:28;;;;;;;1.42;1.00;;;17.60;48.70;;;;;;5070008;28;20218;-54
2021/09/19 11:36:59;;;;;;;2.10;1.20;;;17.50;48.70;;;;;;5070032;28;20714;-51
2021/09/19 11:39:34;;;;;;;1.38;1.00;;;17.50;48.70;;;;;;5069849;28;20199;-53
2021/09/19 11:42:11;;;;;;;1.20;1.10;;;17.50;48.70;;;;;;5070349;28;21546;-54
2021/09/19 11:44:45;;;;;;;1.65;1.05;;;17.50;48.70;;;;;;5060559;28;20215;-56
2021/09/19 11:47:17;;;;;;;1.65;1.30;;;17.50;48.80;;;;;;5049632;28;20262;-54
2021/09/19 11:49:47;;;;;;;1.25;1.15;;;17.50;48.80;;;;;;5050232;28;20679;-51
2021/09/19 11:52:16;;;;;;;1.75;1.20;;;17.50;48.80;;;;;;5049727;28;20245;-48
2021/09/19 11:54:46;;;;;;;1.67;1.10;;;17.50;48.90;;;;;;5052613;28;20313;-52
2021/09/19 11:57:17;;;;;;;1.17;0.93;;;17.40;48.80;;;;;;5069129;28;20258;-46
2021/09/19 11:59:47;;;;;;;2.28;1.25;;;17.50;48.90;;;;;;5068968;28;20333;-47
2021/09/19 12:02:18;;;;;;;2.13;1.27;;;17.50;48.90;;;;;;5068915;28;20702;-49
2021/09/19 12:04:48;;;;;;;1.52;1.10;;;17.40;48.80;;;;;;5069435;28;20754;-56
2021/09/19 12:07:17;;;;;;;1.55;1.20;;;17.50;48.90;;;;;;5069207;28;20281;-48
2021/09/19 12:09:50;;;;;;;2.60;1.40;;;17.40;48.90;;;;;;5069581;28;20242;-51
2021/09/19 12:12:20;;;;;;;1.42;1.10;;;17.40;48.90;;;;;;5069711;28;20233;-56
2021/09/19 12:14:54;;;;;;;1.40;1.20;;;17.40;48.90;;;;;;5069914;28;20258;-54
2021/09/19 12:17:28;;;;;;;1.45;1.20;;;17.40;48.90;;;;;;5070244;28;20592;-51
2021/09/19 12:19:59;;;;;;;1.50;1.27;;;17.40;48.90;;;;;;5069967;28;20237;-56
2021/09/19 12:22:29;;;;;;;1.77;1.20;;;17.40;48.90;;;;;;5069501;28;20210;-50
2021/09/19 12:25:00;;;;;;;2.00;1.10;;;17.40;49.50;;;;;;5069347;28;20268;-54
2021/09/19 12:27:30;;;;;;;1.38;0.80;;;17.30;49.50;;;;;;5069970;28;20257;-56
2021/09/19 12:30:01;;;;;;;1.85;1.13;;;17.30;48.90;;;;;;5069660;28;20202;-56
2021/09/19 12:32:40;;;;;;;1.05;0.93;;;17.30;49.00;;;;;;5069762;28;20671;-55
2021/09/19 12:35:11;;;;;;;1.33;1.20;;;17.30;49.00;;;;;;5069142;28;20257;-56
2021/09/19 12:37:42;;;;;;;1.52;1.02;;;17.30;49.00;;;;;;5069208;28;20226;-50
2021/09/19 12:40:13;;;;;;;1.70;1.15;;;17.20;49.00;;;;;;5069005;28;20214;-53
2021/09/19 12:42:42;;;;;;;1.95;1.20;;;17.30;49.10;;;;;;5069130;28;20226;-52
2021/09/19 12:45:13;;;;;;;1.85;1.10;;;17.30;49.10;;;;;;5069370;28;20234;-50
2021/09/19 12:47:44;;;;;;;2.00;1.20;;;17.20;49.00;;;;;;5072819;28;20242;-51
2021/09/19 12:50:14;;;;;;;1.67;1.10;;;17.20;49.00;;;;;;5072720;28;20241;-48
2021/09/19 12:52:44;;;;;;;1.58;1.20;;;17.20;49.00;;;;;;5063312;28;20203;-52
2021/09/19 12:55:18;;;;;;;1.70;1.15;;;17.20;49.10;;;;;;5069363;28;20272;-53
2021/09/19 12:57:48;;;;;;;1.38;1.00;;;17.20;49.10;;;;;;5072161;28;20237;-48
2021/09/19 13:00:18;;;;;;;1.52;1.08;;;17.20;49.10;;;;;;5072474;28;20624;-50
2021/09/19 13:03:03;;;;;;;1.55;1.10;;;17.10;49.00;;;;;;5072855;28;20238;-49
2021/09/19 13:05:33;;;;;;;2.45;1.30;;;17.10;49.10;;;;;;5073082;28;20228;-51
2021/09/19 13:08:03;;;;;;;1.13;1.02;;;17.10;49.10;;;;;;5072789;28;20206;-53